Time;durP1;ratioP1;P1;durP2;ratioP2;P2;SDS_P1;SDS_P2;PMS_P1;PMS_P2;Temp;Humidity;BMP_temperature;BMP_pressure;BME280_temperature;BME280_humidity;BME280_pressure;Samples;Min_cycle;Max_cycle;Signal;HPM_P1;HPM_P2
2021/12/19 00:02:29;;;;;;;1.17;0.70;;;7.80;99.90;;;;;;5082014;28;20927;-69
2021/12/19 00:08:43;;;;;;;0.90;0.90;;;7.90;99.90;;;;;;5075268;28;20407;-69
2021/12/19 00:11:31;;;;;;;1.67;0.90;;;7.80;99.90;;;;;;5073911;28;20427;-69
2021/12/19 00:14:20;;;;;;;2.00;1.17;;;7.80;99.90;;;;;;5073762;28;20565;-69
2021/12/19 00:17:07;;;;;;;1.57;1.10;;;7.80;99.90;;;;;;5073830;28;20419;-69
2021/12/19 00:19:54;;;;;;;1.00;0.87;;;7.80;99.90;;;;;;5073791;28;20592;-69
2021/12/19 00:22:41;;;;;;;1.43;1.33;;;7.80;99.90;;;;;;5073578;28;20427;-69
2021/12/19 00:25:28;;;;;;;1.47;0.97;;;7.80;99.90;;;;;;5073287;28;20470;-69
2021/12/19 00:28:15;;;;;;;1.03;1.03;;;7.80;99.90;;;;;;5073531;28;20936;-69
2021/12/19 00:31:03;;;;;;;5.83;4.20;;;7.80;99.90;;;;;;5073880;28;20862;-69
2021/12/19 00:33:50;;;;;;;3.00;2.10;;;7.80;99.90;;;;;;5072997;28;20434;-69
2021/12/19 00:36:37;;;;;;;1.40;0.87;;;7.80;99.90;;;;;;5079735;28;20479;-69
2021/12/19 00:39:24;;;;;;;1.00;1.00;;;7.80;99.90;;;;;;5093547;28;21014;-70
2021/12/19 00:42:11;;;;;;;1.17;0.90;;;7.80;99.90;;;;;;5093844;28;20426;-69
2021/12/19 00:45:01;;;;;;;1.80;1.23;;;7.80;99.90;;;;;;5093996;28;20494;-69
2021/12/19 00:47:50;;;;;;;1.67;1.57;;;7.70;99.90;;;;;;5093769;28;20433;-69
2021/12/19 00:50:38;;;;;;;1.40;1.13;;;7.70;99.90;;;;;;5093212;28;20447;-69
2021/12/19 00:53:25;;;;;;;0.50;0.50;;;7.80;99.90;;;;;;5093537;28;20426;-69
2021/12/19 00:56:12;;;;;;;0.50;0.50;;;7.70;99.90;;;;;;5093370;28;20805;-69
2021/12/19 00:58:59;;;;;;;6.63;2.20;;;7.80;99.90;;;;;;5093215;28;20470;-69
2021/12/19 01:01:47;;;;;;;0.40;0.40;;;7.70;99.90;;;;;;5092812;28;20422;-70
2021/12/19 01:04:35;;;;;;;0.40;0.40;;;7.70;99.90;;;;;;5093479;28;20954;-69
2021/12/19 01:07:22;;;;;;;0.50;0.50;;;7.70;99.90;;;;;;5093027;28;20418;-69
2021/12/19 01:10:10;;;;;;;0.70;0.70;;;7.70;99.90;;;;;;5092254;28;20531;-69
2021/12/19 01:12:57;;;;;;;2.03;1.83;;;7.70;99.90;;;;;;5092321;28;20477;-69
2021/12/19 01:15:45;;;;;;;6.10;2.00;;;7.70;99.90;;;;;;5093460;28;20930;-69
2021/12/19 01:18:32;;;;;;;1.17;1.07;;;7.70;99.90;;;;;;5094046;28;20434;-69
2021/12/19 01:21:20;;;;;;;3.20;1.37;;;7.70;99.90;;;;;;5093841;28;20427;-69
2021/12/19 01:24:08;;;;;;;0.70;0.50;;;7.70;99.90;;;;;;5094591;28;20418;-70
2021/12/19 01:26:55;;;;;;;0.93;0.70;;;7.70;99.90;;;;;;5094553;28;20457;-69
2021/12/19 01:29:42;;;;;;;1.00;0.90;;;7.60;99.90;;;;;;5092842;28;20442;-70
2021/12/19 01:32:29;;;;;;;0.50;0.50;;;7.60;99.90;;;;;;5092710;28;21019;-70
2021/12/19 01:35:18;;;;;;;4.10;2.03;;;7.60;99.90;;;;;;5092695;28;20429;-70
2021/12/19 01:38:06;;;;;;;1.97;1.47;;;7.70;99.90;;;;;;5074393;28;20427;-70
2021/12/19 01:40:53;;;;;;;0.50;0.50;;;7.70;99.90;;;;;;5071914;28;20439;-70
2021/12/19 01:43:40;;;;;;;0.47;0.47;;;7.70;99.90;;;;;;5071763;28;20424;-69
2021/12/19 01:46:27;;;;;;;0.53;0.53;;;7.70;99.90;;;;;;5072105;28;20463;-69
2021/12/19 01:49:15;;;;;;;0.87;0.87;;;7.70;99.90;;;;;;5071793;28;20496;-69
2021/12/19 01:52:03;;;;;;;4.57;1.47;;;7.60;99.90;;;;;;5072074;28;20465;-69
2021/12/19 01:54:53;;;;;;;0.50;0.50;;;7.60;99.90;;;;;;5072333;28;20927;-69
2021/12/19 01:57:40;;;;;;;0.80;0.80;;;7.60;99.90;;;;;;5071925;28;20426;-69
2021/12/19 02:00:29;;;;;;;0.73;0.73;;;7.70;99.90;;;;;;5071669;28;20462;-69
2021/12/19 02:03:16;;;;;;;0.40;0.40;;;7.60;99.90;;;;;;5074904;28;20419;-70
2021/12/19 02:06:04;;;;;;;1.73;0.70;;;7.70;99.90;;;;;;5079562;28;20642;-70
2021/12/19 02:08:54;;;;;;;0.70;0.70;;;7.60;99.90;;;;;;5078010;28;20451;-70
2021/12/19 02:11:43;;;;;;;2.30;1.43;;;7.60;99.90;;;;;;5079464;28;20423;-70
2021/12/19 02:14:30;;;;;;;1.23;1.13;;;7.60;99.90;;;;;;5081169;28;20497;-70
2021/12/19 02:17:17;;;;;;;0.73;0.70;;;7.60;99.90;;;;;;5077012;28;20434;-70
2021/12/19 02:20:09;;;;;;;0.40;0.40;;;7.60;99.90;;;;;;5071910;28;20478;-69
2021/12/19 02:22:56;;;;;;;0.50;0.50;;;7.60;99.90;;;;;;5082308;28;20993;-69
2021/12/19 02:25:43;;;;;;;1.30;0.90;;;7.60;99.90;;;;;;5078537;28;20470;-69
2021/12/19 02:28:30;;;;;;;2.43;1.00;;;7.70;99.90;;;;;;5072391;28;20504;-69
2021/12/19 02:31:17;;;;;;;0.80;0.80;;;7.60;99.90;;;;;;5073446;28;20900;-69
2021/12/19 02:34:10;;;;;;;6.33;1.50;;;7.60;99.90;;;;;;5072701;28;20434;-69
2021/12/19 02:37:04;;;;;;;1.83;1.47;;;7.60;99.90;;;;;;5072658;28;20415;-69
2021/12/19 02:40:20;;;;;;;1.43;1.33;;;7.60;99.90;;;;;;5071764;28;20446;-68
2021/12/19 02:49:12;;;;;;;0.93;0.83;;;7.60;99.90;;;;;;5070307;28;20435;-70
2021/12/19 02:52:01;;;;;;;1.87;1.43;;;7.60;99.90;;;;;;5071059;28;20426;-69
2021/12/19 02:54:48;;;;;;;0.60;0.60;;;7.60;99.90;;;;;;5070902;28;20781;-69
2021/12/19 02:57:38;;;;;;;1.33;1.03;;;7.60;99.90;;;;;;5071170;28;20859;-70
2021/12/19 03:00:26;;;;;;;0.70;0.70;;;7.60;99.90;;;;;;5070123;28;20459;-70
2021/12/19 03:03:13;;;;;;;1.17;1.17;;;7.60;99.90;;;;;;5069942;28;20431;-69
2021/12/19 03:06:00;;;;;;;1.43;1.13;;;7.60;99.90;;;;;;5070370;28;20494;-69
2021/12/19 03:08:51;;;;;;;0.60;0.60;;;7.60;99.90;;;;;;5070176;28;20442;-69
2021/12/19 03:12:07;;;;;;;1.23;0.67;;;7.60;99.90;;;;;;5070237;28;20442;-70
2021/12/19 03:18:05;;;;;;;2.13;1.50;;;7.60;99.90;;;;;;5070260;28;20788;-69
2021/12/19 03:20:53;;;;;;;1.13;1.03;;;7.50;99.90;;;;;;5070249;28;20465;-70
2021/12/19 03:23:40;;;;;;;0.60;0.60;;;7.50;99.90;;;;;;5071487;28;20431;-70
2021/12/19 03:26:28;;;;;;;0.90;0.90;;;7.50;99.90;;;;;;5074768;28;20813;-69
2021/12/19 03:29:15;;;;;;;2.00;1.13;;;7.50;99.90;;;;;;5073486;28;20447;-70
2021/12/19 03:32:03;;;;;;;0.50;0.50;;;7.50;99.90;;;;;;5074499;28;20423;-69
2021/12/19 03:34:50;;;;;;;1.10;0.80;;;7.50;99.90;;;;;;5074848;28;20426;-70
2021/12/19 03:37:37;;;;;;;0.40;0.40;;;7.50;99.90;;;;;;5088797;28;20805;-70
2021/12/19 03:40:34;;;;;;;3.33;1.90;;;7.50;99.90;;;;;;5094857;28;20460;-70
2021/12/19 03:43:24;;;;;;;0.80;0.77;;;7.50;99.90;;;;;;5095357;28;20418;-69
2021/12/19 03:46:11;;;;;;;5.57;3.83;;;7.40;99.90;;;;;;5095093;28;20454;-69
2021/12/19 03:48:58;;;;;;;1.70;1.60;;;7.40;99.90;;;;;;5094701;28;20503;-69
2021/12/19 03:51:46;;;;;;;1.33;1.03;;;7.40;99.90;;;;;;5097216;28;20422;-70
2021/12/19 03:54:33;;;;;;;1.07;0.60;;;7.40;99.90;;;;;;5095052;28;20426;-70
2021/12/19 03:57:19;;;;;;;1.23;1.03;;;7.50;99.90;;;;;;5094802;28;20492;-70
2021/12/19 04:00:13;;;;;;;0.40;0.40;;;7.40;99.90;;;;;;5094470;28;20973;-69
2021/12/19 04:03:04;;;;;;;1.27;0.80;;;7.40;99.90;;;;;;5095809;28;20480;-70
2021/12/19 04:05:53;;;;;;;0.97;0.97;;;7.40;99.90;;;;;;5094819;28;20462;-69
2021/12/19 04:08:40;;;;;;;0.70;0.70;;;7.40;99.90;;;;;;5098350;28;20419;-70
2021/12/19 04:11:27;;;;;;;1.13;1.00;;;7.50;99.90;;;;;;5112680;28;20509;-72
2021/12/19 04:14:14;;;;;;;4.30;3.43;;;7.50;99.90;;;;;;5113702;28;20419;-70
2021/12/19 04:17:03;;;;;;;2.27;1.30;;;7.40;99.90;;;;;;5113067;28;20497;-70
2021/12/19 04:19:50;;;;;;;1.40;1.23;;;7.40;99.90;;;;;;5111885;28;20466;-70
2021/12/19 04:22:37;;;;;;;1.07;0.90;;;7.40;99.90;;;;;;5111246;28;20422;-70
2021/12/19 04:25:24;;;;;;;1.53;1.23;;;7.40;99.90;;;;;;5112653;28;20422;-70
2021/12/19 04:28:11;;;;;;;1.17;1.07;;;7.50;99.90;;;;;;5113048;28;20452;-70
2021/12/19 04:30:59;;;;;;;0.67;0.67;;;7.50;99.90;;;;;;5111299;28;20430;-70
2021/12/19 04:33:47;;;;;;;0.60;0.50;;;7.50;99.90;;;;;;5110923;28;20793;-70
2021/12/19 04:36:38;;;;;;;1.13;1.03;;;7.40;99.90;;;;;;5100651;28;20434;-70
2021/12/19 04:39:36;;;;;;;1.73;1.43;;;7.50;99.90;;;;;;5094871;28;20974;-70
2021/12/19 04:52:09;;;;;;;1.23;1.03;;;7.50;99.90;;;;;;5094149;28;20414;-69
2021/12/19 04:55:15;;;;;;;1.07;0.83;;;7.50;99.90;;;;;;5094160;28;20942;-69
2021/12/19 04:58:17;;;;;;;3.23;1.50;;;7.50;99.90;;;;;;5093699;28;20418;-69
2021/12/19 05:01:16;;;;;;;5.33;1.07;;;7.40;99.90;;;;;;5094589;28;20422;-69
2021/12/19 05:04:12;;;;;;;0.53;0.53;;;7.30;99.90;;;;;;5093752;28;20807;-69
2021/12/19 05:16:18;;;;;;;4.03;1.80;;;7.20;99.90;;;;;;5105748;28;20450;-69
2021/12/19 05:19:10;;;;;;;1.43;1.10;;;7.20;99.90;;;;;;5104668;28;20434;-70
2021/12/19 05:22:00;;;;;;;11.40;10.30;;;7.30;99.90;;;;;;5105730;28;20434;-69
2021/12/19 05:25:00;;;;;;;3.20;2.90;;;7.30;99.90;;;;;;5094893;28;20780;-69
2021/12/19 05:27:51;;;;;;;1.37;1.27;;;7.40;99.90;;;;;;5095139;28;20459;-70
2021/12/19 05:30:37;;;;;;;0.70;0.60;;;7.40;99.90;;;;;;5093645;28;20950;-69
2021/12/19 05:33:24;;;;;;;1.20;1.10;;;7.40;99.90;;;;;;5095288;28;20935;-69
2021/12/19 05:45:25;;;;;;;7.03;1.70;;;7.40;99.90;;;;;;5073176;28;20430;-69
2021/12/19 05:48:12;;;;;;;1.57;1.47;;;7.40;99.90;;;;;;5071763;28;20426;-69
2021/12/19 05:51:00;;;;;;;9.40;3.50;;;7.30;99.90;;;;;;5071892;28;20948;-69
2021/12/19 05:53:47;;;;;;;3.40;1.43;;;7.30;99.90;;;;;;5071906;28;20424;-70
2021/12/19 05:56:34;;;;;;;1.47;1.37;;;7.40;99.90;;;;;;5075354;28;20812;-69
2021/12/19 05:59:22;;;;;;;3.77;0.97;;;7.20;99.90;;;;;;5076157;28;20672;-69
2021/12/19 06:02:09;;;;;;;0.53;0.53;;;7.40;99.90;;;;;;5074372;28;20423;-70
2021/12/19 06:04:56;;;;;;;1.53;1.40;;;7.30;99.90;;;;;;5072424;28;20427;-69
2021/12/19 06:07:43;;;;;;;4.30;1.87;;;7.30;99.90;;;;;;5072720;28;20486;-71
2021/12/19 06:10:30;;;;;;;0.60;0.60;;;7.30;99.90;;;;;;5072193;28;20445;-70
2021/12/19 06:13:17;;;;;;;1.93;1.67;;;7.30;99.90;;;;;;5072606;28;20962;-70
2021/12/19 06:16:07;;;;;;;1.30;0.87;;;7.40;99.90;;;;;;5073259;28;20427;-70
2021/12/19 06:18:54;;;;;;;0.50;0.50;;;7.30;99.90;;;;;;5071086;28;20488;-70
2021/12/19 06:21:41;;;;;;;0.47;0.47;;;7.30;99.90;;;;;;5072916;28;20923;-70
2021/12/19 06:24:28;;;;;;;0.40;0.40;;;7.30;99.90;;;;;;5072084;28;20513;-70
2021/12/19 06:27:15;;;;;;;1.37;1.27;;;7.30;99.90;;;;;;5071971;28;20556;-70
2021/12/19 06:30:02;;;;;;;1.00;0.90;;;7.30;99.90;;;;;;5071242;28;20447;-71
2021/12/19 06:32:51;;;;;;;0.40;0.40;;;7.30;99.90;;;;;;5071399;28;20430;-71
2021/12/19 06:35:38;;;;;;;0.40;0.40;;;7.30;99.90;;;;;;5071396;28;20912;-70
2021/12/19 06:38:25;;;;;;;4.00;0.93;;;7.30;99.90;;;;;;5071256;28;20411;-70
2021/12/19 06:41:12;;;;;;;0.93;0.93;;;7.30;99.90;;;;;;5070955;28;21025;-70
2021/12/19 06:43:58;;;;;;;0.60;0.60;;;7.30;99.90;;;;;;5070875;28;20415;-70
2021/12/19 06:46:46;;;;;;;1.23;1.07;;;7.20;99.90;;;;;;5071096;28;20458;-70
2021/12/19 06:49:34;;;;;;;1.20;1.10;;;7.30;99.90;;;;;;5070825;28;20513;-70
2021/12/19 06:52:21;;;;;;;2.83;0.97;;;7.30;99.90;;;;;;5070704;28;20439;-70
2021/12/19 06:55:09;;;;;;;0.67;0.67;;;7.20;99.90;;;;;;5071351;28;20419;-70
2021/12/19 06:57:56;;;;;;;1.23;1.13;;;7.20;99.90;;;;;;5070869;28;20798;-70
2021/12/19 07:00:44;;;;;;;1.33;1.13;;;7.20;99.90;;;;;;5074972;28;20494;-70
2021/12/19 07:03:31;;;;;;;1.33;0.93;;;7.20;99.90;;;;;;5074637;28;20427;-70
2021/12/19 07:06:19;;;;;;;4.80;1.30;;;7.30;99.90;;;;;;5074898;28;20458;-69
2021/12/19 07:09:06;;;;;;;2.20;1.03;;;7.30;99.90;;;;;;5074204;28;20954;-70
2021/12/19 07:11:53;;;;;;;0.40;0.40;;;7.30;99.90;;;;;;5074807;28;20423;-69
2021/12/19 07:14:41;;;;;;;0.40;0.40;;;7.30;99.90;;;;;;5075556;28;20465;-69
2021/12/19 07:17:28;;;;;;;0.90;0.80;;;7.30;99.90;;;;;;5075050;28;20484;-70
2021/12/19 07:20:14;;;;;;;4.80;0.80;;;7.30;99.90;;;;;;5074809;28;20508;-69
2021/12/19 07:23:03;;;;;;;1.33;1.23;;;7.30;99.90;;;;;;5074940;28;20426;-69
2021/12/19 07:25:50;;;;;;;1.57;1.30;;;7.30;99.90;;;;;;5074613;28;20508;-70
2021/12/19 07:28:40;;;;;;;0.47;0.47;;;7.30;99.90;;;;;;5074217;28;20422;-69
2021/12/19 07:31:29;;;;;;;0.40;0.40;;;7.20;99.90;;;;;;5074487;28;20411;-70
2021/12/19 07:34:16;;;;;;;1.50;0.93;;;7.20;99.90;;;;;;5079115;28;20480;-70
2021/12/19 07:37:04;;;;;;;2.97;1.47;;;7.10;99.90;;;;;;5093166;28;20415;-70
2021/12/19 07:39:56;;;;;;;0.40;0.40;;;7.10;99.90;;;;;;5104513;28;20448;-69
2021/12/19 07:42:44;;;;;;;3.40;0.90;;;7.10;99.90;;;;;;5103300;28;20833;-69
2021/12/19 07:45:32;;;;;;;0.60;0.60;;;7.10;99.90;;;;;;5098385;28;20421;-69
2021/12/19 07:48:19;;;;;;;1.00;0.80;;;7.20;99.90;;;;;;5095339;28;20457;-69
2021/12/19 07:51:06;;;;;;;0.63;0.60;;;7.20;99.90;;;;;;5095035;28;20433;-69
2021/12/19 07:53:53;;;;;;;0.57;0.57;;;7.20;99.90;;;;;;5095862;28;20554;-69
2021/12/19 07:56:41;;;;;;;0.40;0.40;;;7.30;99.90;;;;;;5095982;28;20426;-69
2021/12/19 07:59:28;;;;;;;0.40;0.40;;;7.30;99.90;;;;;;5095081;28;20454;-69
2021/12/19 08:02:15;;;;;;;0.40;0.40;;;7.20;99.90;;;;;;5095462;28;20531;-69
2021/12/19 08:05:02;;;;;;;1.13;1.13;;;7.10;99.90;;;;;;5095508;28;20471;-70
2021/12/19 08:07:55;;;;;;;2.70;0.90;;;7.20;99.90;;;;;;5094651;28;20523;-70
2021/12/19 08:13:48;;;;;;;0.40;0.40;;;7.20;99.90;;;;;;5095818;28;20419;-70
2021/12/19 08:16:35;;;;;;;0.83;0.60;;;7.10;99.90;;;;;;5096369;28;20415;-70
2021/12/19 08:19:22;;;;;;;4.00;0.93;;;7.00;99.90;;;;;;5095456;28;20441;-70
2021/12/19 08:22:08;;;;;;;5.90;0.87;;;7.00;99.90;;;;;;5095834;28;20475;-71
2021/12/19 08:24:57;;;;;;;0.40;0.40;;;7.00;99.90;;;;;;5095173;28;20805;-70
2021/12/19 08:27:44;;;;;;;0.40;0.40;;;7.00;99.90;;;;;;5094957;28;20538;-70
2021/12/19 08:30:32;;;;;;;0.93;0.93;;;7.00;99.90;;;;;;5095150;28;20472;-70
2021/12/19 08:33:19;;;;;;;0.70;0.70;;;7.10;99.90;;;;;;5094916;28;20921;-70
2021/12/19 08:36:07;;;;;;;0.70;0.70;;;7.20;99.90;;;;;;5092488;28;20437;-70
2021/12/19 08:38:54;;;;;;;0.50;0.50;;;7.10;99.90;;;;;;5074620;28;20443;-70
2021/12/19 08:41:41;;;;;;;0.50;0.50;;;7.20;99.90;;;;;;5073894;28;20424;-70
2021/12/19 08:44:28;;;;;;;0.40;0.40;;;7.20;99.90;;;;;;5075545;28;20892;-70
2021/12/19 08:47:17;;;;;;;1.87;0.80;;;7.30;99.90;;;;;;5074896;28;20559;-70
2021/12/19 08:50:07;;;;;;;0.40;0.40;;;7.20;99.90;;;;;;5074911;28;20451;-71
2021/12/19 08:52:54;;;;;;;3.27;0.87;;;7.30;99.90;;;;;;5075917;28;20469;-68
2021/12/19 08:55:41;;;;;;;0.40;0.40;;;7.30;99.90;;;;;;5074143;28;20820;-70
2021/12/19 08:58:29;;;;;;;0.50;0.50;;;7.30;99.90;;;;;;5072975;28;20481;-70
2021/12/19 09:01:16;;;;;;;0.50;0.50;;;7.20;99.90;;;;;;5073258;28;20428;-69
2021/12/19 09:04:04;;;;;;;0.70;0.60;;;7.10;99.90;;;;;;5074342;28;20434;-70
2021/12/19 09:06:56;;;;;;;0.93;0.60;;;7.10;99.90;;;;;;5074249;28;20470;-70
2021/12/19 09:09:43;;;;;;;0.70;0.70;;;7.00;99.90;;;;;;5073888;28;20470;-70
2021/12/19 09:12:29;;;;;;;0.53;0.53;;;7.00;99.90;;;;;;5073449;28;20609;-71
2021/12/19 09:15:17;;;;;;;0.40;0.40;;;7.00;99.90;;;;;;5074854;28;20476;-70
2021/12/19 09:18:04;;;;;;;2.97;0.80;;;6.90;99.90;;;;;;5076923;28;20419;-70
2021/12/19 09:20:52;;;;;;;0.47;0.47;;;6.90;99.90;;;;;;5073791;28;20430;-70
2021/12/19 09:23:39;;;;;;;1.00;0.60;;;6.90;99.90;;;;;;5074027;28;20943;-71
2021/12/19 09:26:27;;;;;;;0.40;0.40;;;6.90;99.90;;;;;;5075271;28;20774;-70
2021/12/19 09:29:13;;;;;;;0.40;0.40;;;6.90;99.90;;;;;;5073809;28;20542;-70
2021/12/19 09:32:01;;;;;;;0.50;0.50;;;6.90;99.90;;;;;;5073309;28;20430;-70
2021/12/19 09:34:48;;;;;;;0.40;0.40;;;6.80;99.90;;;;;;5074654;28;20451;-70
2021/12/19 09:37:36;;;;;;;0.40;0.40;;;6.80;99.90;;;;;;5088861;28;20422;-70
2021/12/19 09:40:32;;;;;;;1.63;0.80;;;6.80;99.90;;;;;;5094029;28;20482;-69
2021/12/19 09:43:41;;;;;;;0.50;0.50;;;6.80;99.90;;;;;;5094701;28;20430;-69
2021/12/19 09:46:31;;;;;;;0.50;0.50;;;6.80;99.90;;;;;;5095197;28;20780;-72
2021/12/19 09:49:21;;;;;;;0.50;0.50;;;6.80;99.90;;;;;;5094752;28;20511;-69
2021/12/19 09:52:09;;;;;;;0.50;0.50;;;6.80;99.90;;;;;;5094778;28;20846;-70
2021/12/19 09:54:57;;;;;;;0.77;0.70;;;6.80;99.90;;;;;;5095066;28;20471;-70
2021/12/19 09:57:44;;;;;;;1.43;0.83;;;6.80;99.90;;;;;;5094080;28;20418;-69
2021/12/19 10:00:31;;;;;;;0.83;0.70;;;6.70;99.90;;;;;;5093944;28;20489;-69
2021/12/19 10:03:18;;;;;;;0.77;0.63;;;6.70;99.90;;;;;;5095010;28;20421;-70
2021/12/19 10:06:20;;;;;;;0.40;0.40;;;6.80;99.90;;;;;;5094490;28;20487;-70
2021/12/19 10:09:10;;;;;;;0.70;0.70;;;6.80;99.90;;;;;;5093813;28;20526;-70
2021/12/19 10:12:22;;;;;;;0.90;0.60;;;6.80;99.90;;;;;;5093923;28;20418;-70
2021/12/19 10:15:12;;;;;;;2.50;0.60;;;6.80;99.90;;;;;;5093611;28;20421;-70
2021/12/19 10:18:03;;;;;;;3.50;0.90;;;6.80;99.90;;;;;;5095156;28;20415;-69
2021/12/19 10:20:51;;;;;;;0.50;0.50;;;7.00;99.90;;;;;;5093154;28;20882;-70
2021/12/19 10:23:38;;;;;;;0.47;0.47;;;6.80;99.90;;;;;;5096793;28;20419;-70
2021/12/19 10:26:25;;;;;;;0.70;0.70;;;6.80;99.90;;;;;;5103860;28;20429;-70
2021/12/19 10:29:14;;;;;;;0.40;0.40;;;6.90;99.90;;;;;;5105491;28;20501;-69
2021/12/19 10:32:05;;;;;;;2.13;0.80;;;6.90;99.90;;;;;;5107017;28;21011;-69
2021/12/19 10:35:13;;;;;;;1.27;0.63;;;6.80;99.90;;;;;;5103252;28;20452;-70
2021/12/19 10:38:04;;;;;;;1.47;1.00;;;6.80;99.90;;;;;;5080985;28;20420;-72
2021/12/19 10:40:53;;;;;;;0.80;0.80;;;6.70;99.90;;;;;;5073859;28;21049;-70
2021/12/19 10:43:46;;;;;;;0.50;0.50;;;6.70;99.90;;;;;;5094060;28;20447;-70
2021/12/19 10:46:37;;;;;;;0.60;0.60;;;6.70;99.90;;;;;;5092428;28;20418;-71
2021/12/19 10:49:29;;;;;;;0.80;0.80;;;6.70;99.90;;;;;;5093259;28;20820;-71
2021/12/19 10:52:30;;;;;;;0.93;0.70;;;6.80;99.90;;;;;;5092911;28;20444;-71
2021/12/19 10:55:18;;;;;;;0.73;0.70;;;6.80;99.90;;;;;;5092960;28;20904;-70
2021/12/19 10:58:19;;;;;;;0.70;0.50;;;6.80;99.90;;;;;;5092964;28;20513;-71
2021/12/19 11:01:17;;;;;;;0.80;0.80;;;6.90;99.90;;;;;;5092325;28;20439;-71
2021/12/19 11:04:08;;;;;;;0.40;0.40;;;6.90;99.90;;;;;;5092464;28;20434;-72
2021/12/19 11:06:58;;;;;;;0.70;0.70;;;6.90;99.90;;;;;;5093948;28;20426;-73
2021/12/19 11:09:45;;;;;;;2.70;0.70;;;6.90;99.90;;;;;;5091804;28;20442;-72
2021/12/19 11:12:32;;;;;;;0.70;0.70;;;6.90;99.90;;;;;;5091671;28;20418;-71
2021/12/19 11:15:19;;;;;;;0.40;0.40;;;6.90;99.90;;;;;;5092048;28;20422;-71
2021/12/19 11:18:07;;;;;;;0.40;0.40;;;7.00;99.90;;;;;;5091638;28;20478;-72
2021/12/19 11:20:55;;;;;;;0.40;0.40;;;7.00;99.90;;;;;;5092018;28;20413;-73
2021/12/19 11:23:42;;;;;;;0.40;0.40;;;7.00;99.90;;;;;;5091877;28;20422;-72
2021/12/19 11:26:30;;;;;;;0.50;0.50;;;7.10;99.90;;;;;;5092360;28;20418;-72
2021/12/19 11:29:18;;;;;;;0.63;0.53;;;7.10;99.90;;;;;;5091858;28;20478;-71
2021/12/19 11:32:08;;;;;;;0.40;0.40;;;7.00;99.90;;;;;;5092403;28;20835;-70
2021/12/19 11:35:01;;;;;;;0.40;0.40;;;7.00;99.90;;;;;;5092406;28;20422;-70
2021/12/19 11:37:53;;;;;;;0.73;0.73;;;7.00;99.90;;;;;;5092304;28;20945;-70
2021/12/19 11:40:40;;;;;;;1.70;0.70;;;7.00;99.90;;;;;;5093416;28;20445;-70
2021/12/19 11:43:37;;;;;;;5.53;1.37;;;7.00;99.90;;;;;;5102833;28;20455;-70
2021/12/19 11:46:43;;;;;;;1.37;0.53;;;7.00;99.90;;;;;;5112653;28;20426;-71
2021/12/19 11:49:31;;;;;;;0.50;0.50;;;7.00;99.90;;;;;;5111991;28;20472;-70
2021/12/19 11:52:27;;;;;;;0.80;0.80;;;7.00;99.90;;;;;;5111460;28;20426;-70
2021/12/19 11:55:32;;;;;;;0.50;0.50;;;7.10;99.90;;;;;;5111966;28;20430;-71
2021/12/19 11:58:32;;;;;;;1.00;0.77;;;7.10;99.90;;;;;;5112125;28;20430;-71
2021/12/19 12:01:23;;;;;;;0.80;0.80;;;7.00;99.90;;;;;;5112926;28;20433;-70
2021/12/19 12:04:13;;;;;;;0.50;0.50;;;7.00;99.90;;;;;;5111968;28;20426;-70
2021/12/19 12:07:00;;;;;;;0.80;0.70;;;6.90;99.90;;;;;;5111480;28;20434;-69
2021/12/19 12:09:56;;;;;;;0.73;0.73;;;6.90;99.90;;;;;;5102974;28;20443;-70
2021/12/19 12:12:51;;;;;;;0.90;0.70;;;6.90;99.90;;;;;;5096734;28;20415;-69
2021/12/19 12:15:38;;;;;;;0.40;0.40;;;6.80;99.90;;;;;;5096855;28;20437;-69
2021/12/19 12:18:33;;;;;;;1.10;1.10;;;6.80;99.90;;;;;;5096356;28;20418;-70
2021/12/19 12:21:27;;;;;;;2.60;0.70;;;6.80;99.90;;;;;;5096221;28;20418;-70
2021/12/19 12:24:19;;;;;;;0.87;0.80;;;6.80;99.90;;;;;;5099818;28;20411;-70
2021/12/19 12:27:06;;;;;;;0.50;0.50;;;6.80;99.90;;;;;;5099815;28;20516;-70
2021/12/19 12:29:55;;;;;;;0.47;0.47;;;6.90;99.90;;;;;;5099978;28;20434;-70
2021/12/19 12:32:42;;;;;;;0.40;0.40;;;6.80;99.90;;;;;;5098827;28;20575;-70
2021/12/19 12:35:31;;;;;;;0.60;0.60;;;6.90;99.90;;;;;;5098722;28;20468;-69
2021/12/19 12:38:20;;;;;;;0.60;0.50;;;6.90;99.90;;;;;;5077652;28;20415;-71
2021/12/19 12:41:10;;;;;;;0.50;0.50;;;6.80;99.90;;;;;;5075293;28;20431;-70
2021/12/19 12:44:04;;;;;;;0.67;0.67;;;6.80;99.90;;;;;;5075204;28;20427;-71
2021/12/19 12:46:53;;;;;;;0.50;0.50;;;6.80;99.90;;;;;;5075491;28;20434;-72
2021/12/19 12:49:40;;;;;;;0.40;0.40;;;6.80;99.90;;;;;;5073470;28;20512;-71
2021/12/19 12:52:26;;;;;;;0.90;0.90;;;6.80;99.90;;;;;;5075511;28;20481;-71
2021/12/19 12:55:14;;;;;;;0.50;0.50;;;6.80;99.90;;;;;;5075255;28;20935;-71
2021/12/19 12:58:15;;;;;;;0.40;0.40;;;6.80;99.90;;;;;;5074294;28;20451;-70
2021/12/19 13:01:23;;;;;;;0.40;0.40;;;6.80;99.90;;;;;;5074980;28;20423;-71
2021/12/19 13:04:16;;;;;;;0.87;0.87;;;6.80;99.90;;;;;;5075222;28;20430;-71
2021/12/19 13:07:04;;;;;;;0.50;0.50;;;6.80;99.90;;;;;;5073966;28;20966;-70
2021/12/19 13:09:54;;;;;;;0.40;0.40;;;6.80;99.90;;;;;;5073115;28;21030;-71
2021/12/19 13:12:42;;;;;;;0.87;0.83;;;6.80;99.90;;;;;;5075294;28;20427;-71
2021/12/19 13:15:29;;;;;;;0.83;0.83;;;6.80;99.90;;;;;;5073562;28;20480;-70
2021/12/19 13:18:15;;;;;;;1.43;1.00;;;6.80;99.90;;;;;;5075171;28;20845;-71
2021/12/19 13:21:04;;;;;;;4.47;1.80;;;6.80;99.90;;;;;;5073484;28;20475;-71
2021/12/19 13:24:03;;;;;;;2.20;0.90;;;6.80;99.90;;;;;;5073152;28;20821;-70
2021/12/19 13:27:01;;;;;;;0.80;0.67;;;6.90;99.90;;;;;;5074065;28;20419;-71
2021/12/19 13:30:09;;;;;;;3.90;0.90;;;6.90;99.90;;;;;;5080266;28;20481;-71
2021/12/19 13:32:58;;;;;;;2.00;0.83;;;6.90;99.90;;;;;;5082509;28;20427;-71
2021/12/19 13:35:46;;;;;;;0.50;0.50;;;6.80;99.90;;;;;;5082786;28;20439;-71
2021/12/19 13:38:34;;;;;;;0.80;0.80;;;6.80;99.90;;;;;;5083007;28;20419;-71
2021/12/19 13:41:22;;;;;;;0.60;0.60;;;6.80;99.90;;;;;;5078353;28;20461;-71
2021/12/19 13:44:09;;;;;;;0.60;0.57;;;6.80;99.90;;;;;;5074563;28;20680;-72
2021/12/19 13:46:56;;;;;;;1.17;0.70;;;6.80;99.90;;;;;;5072736;28;20415;-72
2021/12/19 13:49:43;;;;;;;0.40;0.40;;;6.80;99.90;;;;;;5073487;28;20481;-73
2021/12/19 13:52:30;;;;;;;1.57;0.97;;;6.70;99.90;;;;;;5075450;28;20426;-72
2021/12/19 13:55:18;;;;;;;3.07;2.77;;;6.70;99.90;;;;;;5072315;28;20794;-71
2021/12/19 13:58:07;;;;;;;0.60;0.60;;;6.80;99.90;;;;;;5073601;28;20423;-71
2021/12/19 14:00:54;;;;;;;2.93;0.90;;;6.80;99.90;;;;;;5072915;28;20451;-72
2021/12/19 14:03:47;;;;;;;1.00;0.87;;;6.70;99.90;;;;;;5072775;28;20415;-73
2021/12/19 14:06:36;;;;;;;0.40;0.40;;;6.70;99.90;;;;;;5072804;28;20911;-71
2021/12/19 14:09:24;;;;;;;0.50;0.50;;;6.70;99.90;;;;;;5073004;28;20471;-71
2021/12/19 14:12:24;;;;;;;0.50;0.50;;;6.80;99.90;;;;;;5076064;28;20423;-71
2021/12/19 14:15:15;;;;;;;4.60;0.70;;;6.70;99.90;;;;;;5082726;28;20428;-71
2021/12/19 14:18:26;;;;;;;4.17;0.90;;;6.80;99.90;;;;;;5083123;28;20844;-71
2021/12/19 14:21:30;;;;;;;2.20;2.07;;;6.70;99.90;;;;;;5082415;28;20494;-72
2021/12/19 14:24:36;;;;;;;0.40;0.40;;;6.70;99.90;;;;;;5083584;28;20426;-71
2021/12/19 14:27:27;;;;;;;0.60;0.60;;;6.70;99.90;;;;;;5083481;28;20836;-71
2021/12/19 14:30:16;;;;;;;0.50;0.50;;;6.80;99.90;;;;;;5082329;28;20854;-71
2021/12/19 14:33:03;;;;;;;0.50;0.50;;;6.80;99.90;;;;;;5073647;28;20427;-72
2021/12/19 14:35:52;;;;;;;0.40;0.40;;;6.70;99.90;;;;;;5073370;28;20485;-71
2021/12/19 14:38:40;;;;;;;0.40;0.40;;;6.60;99.90;;;;;;5093417;28;20422;-70
2021/12/19 14:41:29;;;;;;;1.00;0.93;;;6.70;99.90;;;;;;5093394;28;20476;-71
2021/12/19 14:44:25;;;;;;;0.70;0.70;;;6.80;99.90;;;;;;5093429;28;20423;-71
2021/12/19 14:47:12;;;;;;;1.77;0.83;;;6.70;99.90;;;;;;5093057;28;20468;-71
2021/12/19 14:50:10;;;;;;;0.40;0.40;;;6.70;99.90;;;;;;5092897;28;21016;-71
2021/12/19 14:53:09;;;;;;;0.40;0.40;;;6.70;99.90;;;;;;5093671;28;20472;-71
2021/12/19 14:55:59;;;;;;;0.40;0.40;;;6.60;99.90;;;;;;5093539;28;20426;-70
2021/12/19 14:58:48;;;;;;;0.60;0.60;;;6.60;99.90;;;;;;5093431;28;20473;-71
2021/12/19 15:01:40;;;;;;;0.40;0.40;;;6.70;99.90;;;;;;5094350;28;20483;-72
2021/12/19 15:04:28;;;;;;;2.70;2.50;;;6.60;99.90;;;;;;5094066;28;20414;-72
2021/12/19 15:07:21;;;;;;;2.40;1.17;;;6.60;99.90;;;;;;5093752;28;20802;-72
2021/12/19 15:10:09;;;;;;;5.03;1.90;;;6.60;99.90;;;;;;5093066;28;20474;-72
2021/12/19 15:12:56;;;;;;;0.50;0.50;;;6.60;99.90;;;;;;5093803;28;20422;-72
2021/12/19 15:15:43;;;;;;;0.67;0.67;;;6.60;99.90;;;;;;5095774;28;20795;-76
2021/12/19 15:18:32;;;;;;;0.50;0.50;;;6.50;99.90;;;;;;5095902;28;20447;-76
2021/12/19 15:21:19;;;;;;;1.90;1.77;;;6.60;99.90;;;;;;5099858;28;20434;-76
2021/12/19 15:24:07;;;;;;;0.97;0.80;;;6.60;99.90;;;;;;5101109;28;20483;-79
2021/12/19 15:26:54;;;;;;;1.17;0.77;;;6.60;99.90;;;;;;5099534;28;20941;-76
2021/12/19 15:29:41;;;;;;;2.23;0.93;;;6.50;99.90;;;;;;5099562;28;20469;-76
2021/12/19 15:32:28;;;;;;;2.57;0.90;;;6.60;99.90;;;;;;5098108;28;20430;-72
2021/12/19 15:35:16;;;;;;;0.50;0.50;;;6.60;99.90;;;;;;5096519;28;20454;-73
2021/12/19 15:38:03;;;;;;;0.50;0.50;;;6.50;99.90;;;;;;5077097;28;20469;-72
2021/12/19 15:40:50;;;;;;;1.50;1.10;;;6.50;99.90;;;;;;5075069;28;20461;-73